Time;durP1;ratioP1;P1;durP2;ratioP2;P2;SDS_P1;SDS_P2;PMS_P1;PMS_P2;Temp;Humidity;BMP_temperature;BMP_pressure;BME280_temperature;BME280_humidity;BME280_pressure;Samples;Min_cycle;Max_cycle;Signal;HPM_P1;HPM_P2
2023/07/14 00:00:40;;;;;;;9.20;2.20;;;;;;;;;;6313767;28;20248;-70
2023/07/14 00:03:45;;;;;;;7.85;1.70;;;;;;;;;;6314123;28;20234;-69
2023/07/14 00:06:50;;;;;;;3.55;2.15;;;;;;;;;;6313868;28;20430;-69
2023/07/14 00:09:55;;;;;;;2.13;1.92;;;;;;;;;;6313629;28;20432;-69
2023/07/14 00:13:00;;;;;;;6.70;1.85;;;;;;;;;;6313788;28;20243;-71
2023/07/14 00:16:10;;;;;;;6.55;1.83;;;;;;;;;;6314169;28;20243;-69
2023/07/14 00:19:15;;;;;;;6.57;2.10;;;;;;;;;;6313652;28;20402;-69
2023/07/14 00:22:19;;;;;;;5.80;2.05;;;;;;;;;;6312721;28;20239;-69
2023/07/14 00:25:26;;;;;;;4.32;2.10;;;;;;;;;;6313169;28;20536;-69
2023/07/14 00:28:30;;;;;;;2.47;1.65;;;;;;;;;;6313506;28;20246;-70
2023/07/14 00:31:35;;;;;;;1.90;1.50;;;;;;;;;;6311886;28;20267;-69
2023/07/14 00:34:39;;;;;;;2.97;2.08;;;;;;;;;;6312039;28;20295;-70
2023/07/14 00:37:43;;;;;;;3.50;1.92;;;;;;;;;;6312199;28;20266;-70
2023/07/14 00:40:49;;;;;;;5.30;1.77;;;;;;;;;;6313112;28;20444;-69
2023/07/14 00:43:56;;;;;;;3.45;1.90;;;;;;;;;;6313241;28;20239;-69
2023/07/14 00:47:00;;;;;;;9.25;2.40;;;;;;;;;;6312133;28;20262;-71
2023/07/14 00:50:05;;;;;;;2.35;1.58;;;;;;;;;;6312028;28;20266;-70
2023/07/14 00:53:13;;;;;;;10.63;2.00;;;;;;;;;;6311963;28;20496;-69
2023/07/14 00:56:30;;;;;;;6.03;2.00;;;;;;;;;;6312819;28;20247;-70
2023/07/14 00:59:34;;;;;;;2.67;1.67;;;;;;;;;;6311757;28;20331;-71
2023/07/14 01:02:40;;;;;;;1.70;1.55;;;;;;;;;;6311777;28;20279;-69
2023/07/14 01:05:45;;;;;;;7.10;2.30;;;;;;;;;;6311928;28;20271;-69
2023/07/14 01:08:52;;;;;;;11.38;1.98;;;;;;;;;;6314099;28;20496;-69
2023/07/14 01:12:00;;;;;;;4.38;2.08;;;;;;;;;;6311504;28;20266;-68
2023/07/14 01:15:06;;;;;;;2.03;1.60;;;;;;;;;;6312405;28;20248;-69
2023/07/14 01:18:11;;;;;;;3.03;2.15;;;;;;;;;;6312270;28;20535;-71
2023/07/14 01:21:17;;;;;;;2.45;2.20;;;;;;;;;;6311268;28;20290;-69
2023/07/14 01:24:24;;;;;;;6.50;1.90;;;;;;;;;;6311052;28;20267;-70
2023/07/14 01:27:30;;;;;;;5.03;2.17;;;;;;;;;;6310814;28;20297;-70
2023/07/14 01:30:35;;;;;;;14.60;2.67;;;;;;;;;;6311976;28;20231;-70
2023/07/14 01:33:39;;;;;;;3.75;1.77;;;;;;;;;;6311678;28;20235;-70
2023/07/14 01:36:44;;;;;;;1.88;1.77;;;;;;;;;;6310860;28;20298;-69
2023/07/14 01:39:50;;;;;;;5.55;1.85;;;;;;;;;;6310677;28;20286;-69
2023/07/14 01:42:57;;;;;;;2.33;1.60;;;;;;;;;;6310685;28;20262;-70
2023/07/14 01:46:02;;;;;;;2.22;1.98;;;;;;;;;;6311183;28;20239;-69
2023/07/14 01:49:13;;;;;;;2.53;1.75;;;;;;;;;;6310583;28;20274;-70
2023/07/14 01:52:20;;;;;;;2.10;1.60;;;;;;;;;;6310521;28;20270;-69
2023/07/14 01:55:25;;;;;;;1.75;1.65;;;;;;;;;;6310653;28;20267;-68
2023/07/14 01:58:33;;;;;;;1.33;1.33;;;;;;;;;;6310946;28;20234;-69
2023/07/14 02:01:38;;;;;;;1.70;1.60;;;;;;;;;;6310160;28;20346;-68
2023/07/14 02:04:46;;;;;;;1.75;1.70;;;;;;;;;;6310375;28;20262;-69
2023/07/14 02:07:51;;;;;;;1.80;1.70;;;;;;;;;;6310062;28;20451;-69
2023/07/14 02:10:55;;;;;;;4.07;1.60;;;;;;;;;;6310183;28;20273;-70
2023/07/14 02:14:01;;;;;;;6.63;1.80;;;;;;;;;;6310180;28;20270;-70
2023/07/14 02:17:08;;;;;;;3.33;1.98;;;;;;;;;;6310558;28;20242;-69
2023/07/14 02:20:16;;;;;;;2.08;1.88;;;;;;;;;;6309960;28;20289;-70
2023/07/14 02:23:22;;;;;;;2.42;2.13;;;;;;;;;;6309575;28;20266;-69
2023/07/14 02:26:29;;;;;;;2.20;1.88;;;;;;;;;;6310771;28;20270;-69
2023/07/14 02:29:35;;;;;;;2.80;2.00;;;;;;;;;;6309753;28;20278;-69
2023/07/14 02:32:44;;;;;;;2.40;2.17;;;;;;;;;;6310487;28;20263;-69
2023/07/14 02:35:52;;;;;;;3.38;2.17;;;;;;;;;;6313824;28;20460;-70
2023/07/14 02:38:56;;;;;;;2.75;2.00;;;;;;;;;;6309829;28;20266;-69
2023/07/14 02:42:00;;;;;;;6.15;2.00;;;;;;;;;;6310294;28;20239;-70
2023/07/14 02:45:08;;;;;;;2.88;2.08;;;;;;;;;;6309224;28;20262;-69
2023/07/14 02:48:15;;;;;;;2.13;1.90;;;;;;;;;;6310232;28;20428;-70
2023/07/14 02:51:19;;;;;;;2.08;1.98;;;;;;;;;;6310588;28;20242;-70
2023/07/14 02:54:25;;;;;;;9.98;2.10;;;;;;;;;;6309552;28;20297;-68
2023/07/14 02:57:30;;;;;;;2.38;1.90;;;;;;;;;;6310427;28;20231;-70
2023/07/14 03:00:36;;;;;;;6.22;2.03;;;;;;;;;;6309265;28;20591;-70
2023/07/14 03:03:40;;;;;;;5.07;1.90;;;;;;;;;;6309398;28;20544;-70
2023/07/14 03:06:45;;;;;;;3.75;2.13;;;;;;;;;;6310301;28;20252;-69
2023/07/14 03:09:51;;;;;;;2.13;1.90;;;;;;;;;;6310263;28;20235;-70
2023/07/14 03:12:55;;;;;;;2.58;2.20;;;;;;;;;;6309209;28;20267;-69
2023/07/14 03:16:01;;;;;;;2.53;2.20;;;;;;;;;;6309838;28;20523;-68
2023/07/14 03:19:05;;;;;;;4.38;2.50;;;;;;;;;;6309548;28;20235;-70
2023/07/14 03:22:09;;;;;;;2.22;2.10;;;;;;;;;;6309183;28;20262;-69
2023/07/14 03:25:14;;;;;;;2.42;2.30;;;;;;;;;;6309674;28;20235;-69
2023/07/14 03:28:18;;;;;;;3.08;2.00;;;;;;;;;;6342550;28;20270;-71
2023/07/14 03:31:24;;;;;;;6.55;2.17;;;;;;;;;;6308898;28;20262;-70
2023/07/14 03:34:28;;;;;;;2.00;2.00;;;;;;;;;;6309512;28;20631;-69
2023/07/14 03:37:33;;;;;;;2.35;2.15;;;;;;;;;;6311646;28;20298;-70
2023/07/14 03:40:37;;;;;;;2.72;2.28;;;;;;;;;;6309309;28;20266;-69
2023/07/14 03:43:41;;;;;;;6.93;2.47;;;;;;;;;;6309912;28;20239;-70
2023/07/14 03:46:47;;;;;;;2.55;2.35;;;;;;;;;;6309610;28;20389;-69
2023/07/14 03:49:52;;;;;;;4.00;2.85;;;;;;;;;;6309709;28;20235;-69
2023/07/14 03:52:56;;;;;;;3.75;2.30;;;;;;;;;;6309582;28;20239;-70
2023/07/14 03:56:00;;;;;;;3.90;2.95;;;;;;;;;;6310467;28;20234;-68
2023/07/14 03:59:05;;;;;;;5.43;2.03;;;;;;;;;;6313856;28;20235;-69
2023/07/14 04:02:10;;;;;;;4.43;2.75;;;;;;;;;;6313899;28;20409;-71
2023/07/14 04:05:15;;;;;;;2.40;2.20;;;;;;;;;;6313132;28;20270;-69
2023/07/14 04:08:19;;;;;;;2.72;2.47;;;;;;;;;;6313040;28;20294;-69
2023/07/14 04:11:24;;;;;;;5.78;2.60;;;;;;;;;;6313531;28;20246;-69
2023/07/14 04:14:28;;;;;;;12.85;2.40;;;;;;;;;;6313617;28;20244;-69
2023/07/14 04:17:34;;;;;;;2.35;2.15;;;;;;;;;;6313493;28;20247;-70
2023/07/14 04:20:38;;;;;;;2.35;2.10;;;;;;;;;;6313609;28;20266;-69
2023/07/14 04:23:42;;;;;;;6.00;2.50;;;;;;;;;;6313226;28;20240;-68
2023/07/14 04:26:47;;;;;;;2.90;2.55;;;;;;;;;;6313487;28;20250;-71
2023/07/14 04:29:51;;;;;;;5.47;2.53;;;;;;;;;;6313055;28;20238;-69
2023/07/14 04:32:57;;;;;;;2.55;2.30;;;;;;;;;;6313229;28;20238;-70
2023/07/14 04:36:02;;;;;;;2.15;2.00;;;;;;;;;;6312676;28;20282;-69
2023/07/14 04:39:07;;;;;;;6.53;2.25;;;;;;;;;;6312959;28;20315;-69
2023/07/14 04:42:12;;;;;;;3.35;1.98;;;;;;;;;;6311920;28;20562;-71
2023/07/14 04:45:17;;;;;;;8.60;2.20;;;;;;;;;;6312825;28;20264;-69
2023/07/14 04:48:23;;;;;;;2.90;2.10;;;;;;;;;;6313145;28;20520;-70
2023/07/14 04:51:28;;;;;;;3.88;2.30;;;;;;;;;;6312795;28;20239;-70
2023/07/14 04:54:32;;;;;;;5.13;2.38;;;;;;;;;;6313077;28;20373;-68
2023/07/14 04:57:36;;;;;;;2.15;2.03;;;;;;;;;;6312915;28;20247;-71
2023/07/14 05:00:41;;;;;;;3.70;2.17;;;;;;;;;;6312834;28;20539;-70
2023/07/14 05:03:47;;;;;;;2.70;2.33;;;;;;;;;;6312396;28;20248;-69
2023/07/14 05:06:51;;;;;;;4.53;2.55;;;;;;;;;;6311735;28;20243;-69
2023/07/14 05:09:55;;;;;;;4.22;2.50;;;;;;;;;;6312189;28;20242;-70
2023/07/14 05:13:00;;;;;;;3.72;2.20;;;;;;;;;;6311863;28;20523;-69
2023/07/14 05:16:04;;;;;;;7.40;2.70;;;;;;;;;;6311919;28;20239;-69
2023/07/14 05:19:10;;;;;;;3.15;2.40;;;;;;;;;;6312246;28;20237;-69
2023/07/14 05:22:14;;;;;;;3.75;2.53;;;;;;;;;;6311869;28;20267;-68
2023/07/14 05:25:19;;;;;;;11.20;2.90;;;;;;;;;;6312279;28;20239;-69
2023/07/14 05:28:24;;;;;;;4.95;2.90;;;;;;;;;;6312175;28;20251;-70
2023/07/14 05:31:28;;;;;;;3.33;2.22;;;;;;;;;;6311660;28;20543;-69
2023/07/14 05:34:34;;;;;;;2.50;2.30;;;;;;;;;;6311887;28;20380;-70
2023/07/14 05:37:38;;;;;;;3.28;2.83;;;;;;;;;;6311621;28;20235;-70
2023/07/14 05:40:43;;;;;;;2.65;2.40;;;;;;;;;;6311311;28;20499;-70
2023/07/14 05:44:01;;;;;;;4.25;2.30;;;;;;;;;;6311539;28;20428;-68
2023/07/14 05:47:06;;;;;;;4.60;2.72;;;;;;;;;;6310960;28;20234;-69
2023/07/14 05:50:12;;;;;;;2.40;2.30;;;;;;;;;;6311243;28;20231;-70
2023/07/14 05:53:17;;;;;;;5.22;2.35;;;;;;;;;;6311399;28;20239;-69
2023/07/14 05:56:22;;;;;;;6.38;2.35;;;;;;;;;;6311276;28;20243;-69
2023/07/14 05:59:27;;;;;;;3.53;2.63;;;;;;;;;;6311205;28;20243;-70
2023/07/14 06:02:31;;;;;;;3.85;2.58;;;;;;;;;;6310664;28;20267;-70
2023/07/14 06:05:37;;;;;;;5.15;2.72;;;;;;;;;;6312047;28;20532;-69
2023/07/14 06:08:42;;;;;;;2.72;2.40;;;;;;;;;;6310875;28;20445;-70
2023/07/14 06:11:46;;;;;;;6.60;2.33;;;;;;;;;;6310943;28;20234;-70
2023/07/14 06:14:50;;;;;;;5.05;2.28;;;;;;;;;;6310583;28;20539;-70
2023/07/14 06:17:55;;;;;;;4.53;2.80;;;;;;;;;;6310270;28;20235;-69
2023/07/14 06:21:00;;;;;;;5.00;2.20;;;;;;;;;;6310691;28;20239;-69
2023/07/14 06:24:07;;;;;;;3.25;2.30;;;;;;;;;;6310511;28;20504;-70
2023/07/14 06:27:12;;;;;;;8.68;2.72;;;;;;;;;;6310431;28;20267;-69
2023/07/14 06:30:16;;;;;;;7.55;2.30;;;;;;;;;;6310717;28;20468;-70
2023/07/14 06:33:21;;;;;;;4.38;2.55;;;;;;;;;;6310673;28;20235;-70
2023/07/14 06:36:26;;;;;;;2.72;2.53;;;;;;;;;;6310347;28;20278;-70
2023/07/14 06:39:31;;;;;;;6.20;2.60;;;;;;;;;;6310906;28;20504;-69
2023/07/14 06:42:37;;;;;;;4.85;2.50;;;;;;;;;;6310056;28;20207;-69
2023/07/14 06:45:41;;;;;;;5.35;2.45;;;;;;;;;;6310129;28;20244;-70
2023/07/14 06:48:46;;;;;;;3.17;2.28;;;;;;;;;;6310469;28;20234;-70
2023/07/14 06:51:52;;;;;;;4.30;2.53;;;;;;;;;;6309354;28;20274;-70
2023/07/14 06:54:57;;;;;;;2.85;2.50;;;;;;;;;;6310437;28;20234;-69
2023/07/14 06:58:02;;;;;;;3.55;2.50;;;;;;;;;;6310004;28;20247;-69
2023/07/14 07:01:07;;;;;;;3.38;2.55;;;;;;;;;;6309899;28;20243;-70
2023/07/14 07:04:12;;;;;;;2.75;2.55;;;;;;;;;;6310149;28;20234;-70
2023/07/14 07:07:17;;;;;;;2.25;2.13;;;;;;;;;;6310070;28;20263;-70
2023/07/14 07:10:22;;;;;;;4.25;2.60;;;;;;;;;;6309884;28;20239;-69
2023/07/14 07:13:26;;;;;;;3.88;2.30;;;;;;;;;;6309828;28;20551;-69
2023/07/14 07:16:30;;;;;;;4.40;2.65;;;;;;;;;;6309527;28;20238;-68
2023/07/14 07:19:35;;;;;;;4.00;2.50;;;;;;;;;;6309696;28;20230;-70
2023/07/14 07:22:41;;;;;;;3.17;2.63;;;;;;;;;;6310007;28;20262;-69
2023/07/14 07:25:48;;;;;;;3.35;2.58;;;;;;;;;;6310080;28;20239;-71
2023/07/14 07:28:52;;;;;;;2.70;2.50;;;;;;;;;;6310067;28;20239;-71
2023/07/14 07:31:56;;;;;;;4.30;2.70;;;;;;;;;;6314191;28;20236;-72
2023/07/14 07:35:01;;;;;;;4.72;2.78;;;;;;;;;;6315316;28;20286;-70
2023/07/14 07:38:07;;;;;;;4.43;2.55;;;;;;;;;;6314315;28;20287;-70
2023/07/14 07:41:11;;;;;;;2.67;2.53;;;;;;;;;;6315013;28;20516;-70
2023/07/14 07:44:16;;;;;;;3.70;2.53;;;;;;;;;;6314595;28;20272;-71
2023/07/14 07:47:20;;;;;;;8.57;2.90;;;;;;;;;;6314007;28;20311;-70
2023/07/14 07:50:26;;;;;;;5.25;2.63;;;;;;;;;;6314439;28;20238;-69
2023/07/14 07:53:32;;;;;;;5.60;2.78;;;;;;;;;;6314022;28;20603;-69
2023/07/14 07:56:36;;;;;;;4.30;2.70;;;;;;;;;;6314176;28;20540;-71
2023/07/14 07:59:41;;;;;;;3.17;2.35;;;;;;;;;;6313986;28;20235;-70
2023/07/14 08:02:45;;;;;;;3.15;2.65;;;;;;;;;;6313903;28;20267;-69
2023/07/14 08:05:49;;;;;;;3.53;2.47;;;;;;;;;;6313945;28;20232;-70
2023/07/14 08:08:55;;;;;;;4.80;2.63;;;;;;;;;;6314147;28;20250;-71
2023/07/14 08:11:59;;;;;;;7.95;2.60;;;;;;;;;;6313740;28;20321;-69
2023/07/14 08:15:04;;;;;;;3.95;2.55;;;;;;;;;;6313661;28;20235;-71
2023/07/14 08:18:09;;;;;;;3.85;2.70;;;;;;;;;;6313530;28;20258;-70
2023/07/14 08:21:13;;;;;;;3.72;2.90;;;;;;;;;;6313714;28;20551;-69
2023/07/14 08:24:20;;;;;;;5.35;2.65;;;;;;;;;;6313669;28;20263;-70
2023/07/14 08:27:24;;;;;;;3.45;2.53;;;;;;;;;;6313799;28;20238;-68
2023/07/14 08:30:30;;;;;;;3.00;2.80;;;;;;;;;;6313400;28;20239;-71
2023/07/14 08:33:35;;;;;;;4.85;3.25;;;;;;;;;;6313597;28;20244;-69
2023/07/14 08:36:40;;;;;;;5.00;2.97;;;;;;;;;;6313455;28;20287;-69
2023/07/14 08:39:45;;;;;;;4.78;2.63;;;;;;;;;;6313095;28;20401;-70
2023/07/14 08:42:53;;;;;;;4.88;2.40;;;;;;;;;;6312167;28;20258;-70
2023/07/14 08:46:00;;;;;;;3.35;2.55;;;;;;;;;;6312659;28;20500;-70
2023/07/14 08:49:06;;;;;;;2.50;2.30;;;;;;;;;;6313052;28;20235;-70
2023/07/14 08:52:12;;;;;;;3.95;2.60;;;;;;;;;;6312704;28;20239;-69
2023/07/14 08:55:21;;;;;;;2.63;2.50;;;;;;;;;;6312812;28;20415;-71
2023/07/14 08:58:27;;;;;;;3.80;2.70;;;;;;;;;;6312619;28;20243;-70
2023/07/14 09:01:36;;;;;;;4.88;2.60;;;;;;;;;;6312274;28;20431;-70
2023/07/14 09:04:42;;;;;;;5.47;2.63;;;;;;;;;;6312417;28;20399;-69
2023/07/14 09:07:47;;;;;;;6.13;2.70;;;;;;;;;;6312226;28;20239;-71
2023/07/14 09:10:59;;;;;;;2.90;2.65;;;;;;;;;;6312505;28;20231;-70
2023/07/14 09:14:08;;;;;;;2.67;2.47;;;;;;;;;;6311869;28;20247;-70
2023/07/14 09:17:18;;;;;;;3.10;2.45;;;;;;;;;;6312176;28;20532;-70
2023/07/14 09:20:36;;;;;;;2.30;2.20;;;;;;;;;;6311964;28;20235;-70
2023/07/14 09:23:58;;;;;;;3.63;2.78;;;;;;;;;;6312065;28;20394;-71
2023/07/14 09:27:05;;;;;;;3.47;2.60;;;;;;;;;;6311670;28;20239;-71
2023/07/14 09:30:16;;;;;;;4.10;2.40;;;;;;;;;;6311717;28;20519;-70
2023/07/14 09:33:21;;;;;;;4.80;2.33;;;;;;;;;;6312658;28;20399;-71
2023/07/14 09:36:26;;;;;;;4.90;2.67;;;;;;;;;;6311181;28;20398;-71
2023/07/14 09:39:35;;;;;;;3.08;2.55;;;;;;;;;;6311193;28;20242;-70
2023/07/14 09:42:41;;;;;;;4.10;2.63;;;;;;;;;;6311265;28;20523;-70
2023/07/14 09:45:45;;;;;;;4.97;2.50;;;;;;;;;;6311315;28;20243;-70
2023/07/14 09:48:52;;;;;;;4.55;2.30;;;;;;;;;;6310997;28;20242;-71
2023/07/14 09:52:03;;;;;;;3.67;2.45;;;;;;;;;;6311240;28;20239;-71
2023/07/14 09:55:13;;;;;;;5.28;2.53;;;;;;;;;;6310111;28;20243;-70
2023/07/14 09:58:22;;;;;;;8.50;2.50;;;;;;;;;;6310614;28;20341;-72
2023/07/14 10:01:29;;;;;;;3.65;2.53;;;;;;;;;;6310623;28;20262;-71
2023/07/14 10:04:36;;;;;;;4.82;2.78;;;;;;;;;;6310969;28;20263;-70
2023/07/14 10:07:42;;;;;;;2.40;2.28;;;;;;;;;;6310364;28;20255;-69
2023/07/14 10:10:47;;;;;;;2.83;2.42;;;;;;;;;;6311898;28;20227;-70
2023/07/14 10:13:59;;;;;;;4.35;2.20;;;;;;;;;;6310728;28;20446;-71
2023/07/14 10:17:07;;;;;;;6.22;2.45;;;;;;;;;;6310318;28;20239;-72
2023/07/14 10:20:24;;;;;;;5.55;2.85;;;;;;;;;;6310481;28;20235;-69
2023/07/14 10:23:28;;;;;;;7.63;3.05;;;;;;;;;;6310172;28;20259;-70
2023/07/14 10:26:34;;;;;;;5.32;3.03;;;;;;;;;;6310413;28;20231;-68
2023/07/14 10:29:47;;;;;;;2.88;2.67;;;;;;;;;;6310470;28;20251;-69
2023/07/14 10:32:52;;;;;;;2.92;2.60;;;;;;;;;;6309839;28;20247;-70
2023/07/14 10:36:00;;;;;;;8.32;2.80;;;;;;;;;;6309792;28;20282;-71
2023/07/14 10:39:07;;;;;;;3.20;2.60;;;;;;;;;;6310270;28;20240;-71
2023/07/14 10:42:13;;;;;;;2.67;2.30;;;;;;;;;;6310179;28;20422;-70
2023/07/14 10:45:19;;;;;;;3.00;2.70;;;;;;;;;;6309939;28;20263;-68
2023/07/14 10:48:26;;;;;;;2.95;2.75;;;;;;;;;;6309565;28;20528;-70
2023/07/14 10:51:33;;;;;;;2.38;2.20;;;;;;;;;;6310086;28;20279;-70
2023/07/14 10:54:43;;;;;;;4.28;3.00;;;;;;;;;;6309825;28;20447;-71
2023/07/14 10:57:49;;;;;;;2.53;2.33;;;;;;;;;;6309607;28;20430;-69
2023/07/14 11:00:58;;;;;;;2.58;2.30;;;;;;;;;;6311029;28;20234;-70
2023/07/14 11:04:07;;;;;;;4.20;2.33;;;;;;;;;;6309972;28;20262;-69
2023/07/14 11:07:16;;;;;;;4.70;2.95;;;;;;;;;;6314782;28;20252;-70
2023/07/14 11:10:29;;;;;;;2.70;2.30;;;;;;;;;;6314655;28;20231;-70
2023/07/14 11:13:38;;;;;;;6.20;3.83;;;;;;;;;;6313867;28;20267;-69
2023/07/14 11:16:48;;;;;;;3.10;2.90;;;;;;;;;;6314855;28;20247;-69
2023/07/14 11:20:05;;;;;;;2.95;2.65;;;;;;;;;;6314726;28;20239;-70
2023/07/14 11:23:15;;;;;;;3.65;2.25;;;;;;;;;;6314501;28;20235;-69
2023/07/14 11:26:23;;;;;;;2.92;2.53;;;;;;;;;;6314217;28;20267;-70
2023/07/14 11:29:32;;;;;;;6.43;4.20;;;;;;;;;;6314252;28;20243;-68
2023/07/14 11:32:42;;;;;;;2.47;2.33;;;;;;;;;;6314803;28;20259;-71
2023/07/14 11:35:51;;;;;;;2.85;2.30;;;;;;;;;;6313985;28;20583;-70
2023/07/14 11:38:58;;;;;;;3.85;2.47;;;;;;;;;;6314521;28;20232;-69
2023/07/14 11:42:03;;;;;;;2.08;1.98;;;;;;;;;;6314495;28;20239;-70
2023/07/14 11:45:19;;;;;;;4.10;2.08;;;;;;;;;;6314011;28;20267;-69
2023/07/14 11:48:26;;;;;;;2.17;1.95;;;;;;;;;;6314427;28;20244;-70
2023/07/14 11:51:47;;;;;;;4.13;2.40;;;;;;;;;;6313961;28;20239;-70
2023/07/14 11:55:02;;;;;;;3.72;2.40;;;;;;;;;;6313924;28;20243;-71
2023/07/14 11:58:11;;;;;;;8.88;2.33;;;;;;;;;;6313980;28;20492;-70
2023/07/14 12:01:17;;;;;;;6.70;2.17;;;;;;;;;;6313982;28;20519;-69
2023/07/14 12:04:28;;;;;;;2.75;2.17;;;;;;;;;;6313999;28;20258;-70
2023/07/14 12:07:36;;;;;;;3.40;2.13;;;;;;;;;;6313875;28;20255;-69
2023/07/14 12:10:46;;;;;;;2.45;2.20;;;;;;;;;;6313614;28;20457;-69
2023/07/14 12:13:52;;;;;;;2.83;2.22;;;;;;;;;;6313607;28;20239;-70
2023/07/14 12:16:57;;;;;;;4.63;2.03;;;;;;;;;;6312328;28;20247;-70
2023/07/14 12:20:06;;;;;;;2.10;1.98;;;;;;;;;;6313452;28;20519;-72
2023/07/14 12:23:16;;;;;;;2.63;2.42;;;;;;;;;;6313363;28;20338;-69
2023/07/14 12:26:24;;;;;;;1.90;1.88;;;;;;;;;;6313149;28;20259;-68
2023/07/14 12:29:29;;;;;;;2.33;2.20;;;;;;;;;;6313431;28;20251;-70
2023/07/14 12:32:44;;;;;;;2.35;2.17;;;;;;;;;;6313203;28;20519;-70
2023/07/14 12:35:49;;;;;;;2.10;2.00;;;;;;;;;;6312579;28;20325;-70
2023/07/14 12:38:54;;;;;;;1.88;1.73;;;;;;;;;;6312877;28;20239;-70
2023/07/14 12:42:02;;;;;;;2.20;2.10;;;;;;;;;;6313192;28;20230;-70
2023/07/14 12:45:07;;;;;;;1.88;1.80;;;;;;;;;;6313888;28;20262;-69
2023/07/14 12:48:12;;;;;;;2.75;2.15;;;;;;;;;;6312737;28;20243;-70
2023/07/14 12:51:20;;;;;;;2.90;1.80;;;;;;;;;;6312879;28;20460;-69
2023/07/14 12:54:25;;;;;;;2.22;2.00;;;;;;;;;;6312385;28;20240;-70
2023/07/14 12:57:31;;;;;;;2.78;2.10;;;;;;;;;;6312791;28;20239;-69
2023/07/14 13:00:37;;;;;;;10.13;2.03;;;;;;;;;;6314084;28;20508;-70
2023/07/14 13:03:41;;;;;;;1.77;1.65;;;;;;;;;;6313157;28;20251;-69
2023/07/14 13:06:48;;;;;;;3.70;2.00;;;;;;;;;;6312569;28;20262;-71
2023/07/14 13:09:59;;;;;;;1.75;1.70;;;;;;;;;;6312751;28;20251;-73
2023/07/14 13:13:06;;;;;;;1.80;1.70;;;;;;;;;;6312371;28;20240;-68
2023/07/14 13:16:12;;;;;;;1.85;1.85;;;;;;;;;;6312312;28;20263;-71
2023/07/14 13:19:24;;;;;;;4.40;1.83;;;;;;;;;;6311832;28;20234;-70
2023/07/14 13:22:31;;;;;;;2.55;1.98;;;;;;;;;;6312058;28;20234;-70
2023/07/14 13:25:41;;;;;;;3.45;2.03;;;;;;;;;;6311533;28;20288;-70
2023/07/14 13:28:56;;;;;;;1.80;1.70;;;;;;;;;;6312675;28;20239;-69
2023/07/14 13:32:01;;;;;;;1.85;1.85;;;;;;;;;;6312052;28;20231;-70
2023/07/14 13:35:07;;;;;;;2.22;1.85;;;;;;;;;;6311637;28;20305;-71
2023/07/14 13:38:15;;;;;;;1.30;1.30;;;;;;;;;;6310746;28;20433;-69
2023/07/14 13:41:20;;;;;;;1.83;1.73;;;;;;;;;;6311420;28;20248;-70
2023/07/14 13:44:44;;;;;;;9.10;1.92;;;;;;;;;;6311248;28;20255;-70
2023/07/14 13:47:50;;;;;;;3.60;1.50;;;;;;;;;;6311091;28;20262;-70
2023/07/14 13:50:54;;;;;;;1.52;1.48;;;;;;;;;;6311211;28;20242;-69
2023/07/14 13:54:00;;;;;;;2.22;1.52;;;;;;;;;;6310953;28;20423;-70
2023/07/14 13:57:04;;;;;;;5.05;1.45;;;;;;;;;;6311425;28;20255;-70
2023/07/14 14:00:14;;;;;;;3.60;1.70;;;;;;;;;;6311260;28;20515;-70
2023/07/14 14:03:22;;;;;;;5.07;1.90;;;;;;;;;;6311052;28;20235;-69
2023/07/14 14:06:28;;;;;;;1.55;1.50;;;;;;;;;;6310928;28;20554;-69
2023/07/14 14:09:34;;;;;;;5.38;1.67;;;;;;;;;;6311484;28;20451;-70
2023/07/14 14:12:38;;;;;;;5.22;1.88;;;;;;;;;;6311349;28;20243;-69
2023/07/14 14:15:44;;;;;;;2.25;1.67;;;;;;;;;;6310965;28;20551;-68
2023/07/14 14:18:51;;;;;;;4.90;1.45;;;;;;;;;;6310857;28;20431;-69
2023/07/14 14:21:59;;;;;;;2.17;1.63;;;;;;;;;;6310667;28;20234;-70
2023/07/14 14:25:12;;;;;;;2.03;1.67;;;;;;;;;;6310969;28;20242;-70
2023/07/14 14:28:17;;;;;;;2.35;2.10;;;;;;;;;;6311096;28;20235;-69
2023/07/14 14:31:21;;;;;;;1.65;1.60;;;;;;;;;;6310887;28;20243;-69
2023/07/14 14:34:26;;;;;;;1.50;1.48;;;;;;;;;;6310651;28;20239;-71
2023/07/14 14:37:30;;;;;;;1.67;1.67;;;;;;;;;;6311115;28;20294;-70
2023/07/14 14:40:36;;;;;;;2.97;1.60;;;;;;;;;;6310147;28;20240;-70
2023/07/14 14:43:40;;;;;;;2.40;1.75;;;;;;;;;;6310521;28;20409;-70
2023/07/14 14:46:44;;;;;;;4.30;3.05;;;;;;;;;;6310035;28;20264;-69
2023/07/14 14:49:49;;;;;;;1.90;1.80;;;;;;;;;;6310450;28;20243;-70
2023/07/14 14:52:53;;;;;;;1.70;1.60;;;;;;;;;;6310346;28;20235;-69
2023/07/14 14:56:00;;;;;;;1.73;1.70;;;;;;;;;;6310199;28;20244;-70
2023/07/14 14:59:07;;;;;;;1.40;1.30;;;;;;;;;;6310068;28;20251;-69
2023/07/14 15:02:14;;;;;;;4.13;2.03;;;;;;;;;;6310235;28;20263;-68
2023/07/14 15:05:20;;;;;;;12.25;1.70;;;;;;;;;;6310192;28;20240;-70
2023/07/14 15:08:25;;;;;;;2.20;1.58;;;;;;;;;;6310401;28;20263;-70
2023/07/14 15:11:30;;;;;;;1.95;1.52;;;;;;;;;;6310404;28;20386;-69
2023/07/14 15:14:36;;;;;;;3.05;1.50;;;;;;;;;;6310063;28;20310;-69
2023/07/14 15:17:40;;;;;;;1.45;1.35;;;;;;;;;;6310382;28;20262;-70
2023/07/14 15:20:44;;;;;;;1.52;1.50;;;;;;;;;;6310050;28;20296;-70
2023/07/14 15:23:48;;;;;;;;;;;;;;;;;;6310279;28;20104;-71
2023/07/14 15:26:52;;;;;;;;;;;;;;;;;;6310064;28;19992;-71
2023/07/14 15:29:56;;;;;;;;;;;;;;;;;;6310223;28;19983;-71
2023/07/14 15:33:03;;;;;;;1.50;1.50;;;;;;;;;;6310090;28;20302;-70
2023/07/14 15:36:07;;;;;;;5.93;1.23;;;;;;;;;;6309579;28;20570;-69
2023/07/14 15:39:13;;;;;;;1.92;1.35;;;;;;;;;;6310209;28;20247;-69
2023/07/14 15:42:17;;;;;;;2.35;1.42;;;;;;;;;;6309626;28;20239;-69
2023/07/14 15:45:22;;;;;;;2.47;1.40;;;;;;;;;;6310018;28;20406;-72
2023/07/14 15:48:30;;;;;;;4.43;1.42;;;;;;;;;;6309942;28;20258;-72
2023/07/14 15:51:45;;;;;;;3.50;1.60;;;;;;;;;;6311952;28;20239;-72
2023/07/14 15:54:50;;;;;;;3.17;1.20;;;;;;;;;;6314181;28;20420;-71
2023/07/14 15:57:54;;;;;;;4.15;1.40;;;;;;;;;;6313905;28;20252;-71
2023/07/14 16:00:59;;;;;;;3.28;1.52;;;;;;;;;;6314127;28;20226;-70
2023/07/14 16:04:21;;;;;;;1.70;1.50;;;;;;;;;;6314014;28;20239;-71
2023/07/14 16:07:26;;;;;;;5.72;1.55;;;;;;;;;;6313084;28;20583;-71
2023/07/14 16:10:32;;;;;;;1.10;1.10;;;;;;;;;;6314074;28;20239;-71
2023/07/14 16:13:36;;;;;;;2.05;1.30;;;;;;;;;;6313840;28;20255;-71
2023/07/14 16:16:40;;;;;;;1.45;1.38;;;;;;;;;;6313876;28;20235;-71
2023/07/14 16:19:47;;;;;;;1.20;1.10;;;;;;;;;;6313575;28;20235;-71
2023/07/14 16:22:52;;;;;;;1.25;1.25;;;;;;;;;;6313546;28;20243;-71
2023/07/14 16:25:57;;;;;;;5.38;1.30;;;;;;;;;;6313568;28;20452;-71
2023/07/14 16:29:01;;;;;;;1.70;1.60;;;;;;;;;;6313504;28;20262;-70
2023/07/14 16:32:07;;;;;;;1.88;1.45;;;;;;;;;;6313368;28;20611;-70
2023/07/14 16:35:15;;;;;;;2.80;1.48;;;;;;;;;;6312938;28;20282;-71
2023/07/14 16:38:21;;;;;;;2.72;1.52;;;;;;;;;;6313238;28;20406;-71
2023/07/14 16:41:25;;;;;;;2.78;1.80;;;;;;;;;;6313406;28;20263;-71
2023/07/14 16:44:30;;;;;;;4.72;2.47;;;;;;;;;;6313219;28;20267;-71
2023/07/14 16:47:34;;;;;;;5.32;1.58;;;;;;;;;;6313029;28;20271;-70
2023/07/14 16:50:39;;;;;;;1.85;1.40;;;;;;;;;;6312879;28;20234;-71
2023/07/14 16:53:43;;;;;;;1.00;1.00;;;;;;;;;;6312634;28;20242;-70
2023/07/14 16:56:48;;;;;;;3.53;1.45;;;;;;;;;;6313146;28;20244;-70
2023/07/14 16:59:52;;;;;;;3.75;1.60;;;;;;;;;;6312649;28;20263;-70
2023/07/14 17:02:58;;;;;;;5.05;1.25;;;;;;;;;;6312690;28;20241;-70
2023/07/14 17:06:07;;;;;;;7.85;1.70;;;;;;;;;;6312984;28;20254;-71
2023/07/14 17:09:13;;;;;;;3.13;1.52;;;;;;;;;;6312612;28;20259;-71
2023/07/14 17:12:18;;;;;;;3.55;1.50;;;;;;;;;;6312370;28;20278;-73
2023/07/14 17:15:22;;;;;;;3.58;1.58;;;;;;;;;;6313456;28;20508;-72
2023/07/14 17:18:27;;;;;;;2.45;1.50;;;;;;;;;;6312957;28;20511;-73
2023/07/14 17:21:33;;;;;;;4.55;1.50;;;;;;;;;;6312747;28;20507;-73
2023/07/14 17:24:37;;;;;;;1.60;1.60;;;;;;;;;;6312534;28;20235;-71
2023/07/14 17:27:41;;;;;;;2.40;1.70;;;;;;;;;;6311341;28;20282;-71
2023/07/14 17:30:50;;;;;;;2.47;1.90;;;;;;;;;;6312121;28;20338;-69
2023/07/14 17:33:54;;;;;;;16.55;2.40;;;;;;;;;;6311766;28;20236;-70
2023/07/14 17:37:01;;;;;;;2.25;1.70;;;;;;;;;;6311953;28;20290;-73
2023/07/14 17:40:12;;;;;;;1.55;1.38;;;;;;;;;;6311580;28;20511;-71
2023/07/14 17:43:18;;;;;;;2.90;1.40;;;;;;;;;;6310606;28;20243;-72
2023/07/14 17:46:26;;;;;;;1.58;1.30;;;;;;;;;;6311206;28;20231;-72
2023/07/14 17:49:30;;;;;;;4.05;1.58;;;;;;;;;;6311091;28;20263;-72
2023/07/14 17:52:36;;;;;;;2.25;1.13;;;;;;;;;;6311261;28;20235;-72
2023/07/14 17:55:40;;;;;;;1.42;1.30;;;;;;;;;;6310666;28;20270;-72
2023/07/14 17:58:45;;;;;;;1.40;1.30;;;;;;;;;;6311647;28;20516;-69
2023/07/14 18:01:49;;;;;;;1.40;1.40;;;;;;;;;;6310842;28;20246;-70
2023/07/14 18:04:53;;;;;;;2.35;1.80;;;;;;;;;;6311222;28;20239;-71
2023/07/14 18:08:01;;;;;;;1.40;1.40;;;;;;;;;;6310765;28;20266;-71
2023/07/14 18:11:13;;;;;;;4.68;1.30;;;;;;;;;;6310797;28;20234;-71
2023/07/14 18:14:21;;;;;;;2.22;2.13;;;;;;;;;;6310065;28;20519;-71
2023/07/14 18:17:26;;;;;;;2.05;1.40;;;;;;;;;;6310544;28;20247;-71
2023/07/14 18:20:32;;;;;;;3.42;1.50;;;;;;;;;;6310470;28;20540;-72
2023/07/14 18:23:37;;;;;;;2.72;1.52;;;;;;;;;;6311193;28;20235;-72
2023/07/14 18:26:42;;;;;;;4.95;1.92;;;;;;;;;;6310763;28;20247;-71
2023/07/14 18:29:46;;;;;;;8.55;1.90;;;;;;;;;;6310026;28;20258;-70
2023/07/14 18:32:51;;;;;;;2.30;1.80;;;;;;;;;;6310367;28;20238;-70
2023/07/14 18:35:56;;;;;;;4.57;1.60;;;;;;;;;;6310130;28;20286;-70